MHLC/LCE METAR and TAF weather

Enter ICAO airport designator
Station Type Date Time Source
MHLC METAR 2019/12/09 04:00 UTC NOAA

MHLC 090400Z VRB02KT 9999 FEW025 BKN070 24/21 Q1017 A3003 NOSIG


Station Type Date Time Source
MHLC Decoded METAR 2019/12/09 04:00 UTC NOAA

La Ceiba Airport , Honduras (MHLC) 15-44N 086-52W 26M
Dec 08, 2019 - 11:00 PM EST / 2019.12.09 0400 UTC
Wind: Variable at 2 MPH (2 KT):0
Visibility: greater than 7 mile(s):0
Sky conditions: mostly cloudy
Temperature: 75 F (24 C)
Dew Point: 69 F (21 C)
Relative Humidity: 83%
Pressure (altimeter): 30.03 in. Hg (1016 hPa)
ob: MHLC 090400Z VRB02KT 9999 FEW025 BKN070 24/21 Q1017 A3003 NOSIG
cycle: 4

Station Type Date Time Source
MHLC TAF 2019/12/09 06:45 UTC NOAA

TAF TAF MHLC 090440Z 0906/1006 1103KT 8000 VCSH SCT028 BKN080 TX29/0919Z TN20/0912Z
BECMG 0910/0912 00000KT 9999 NSW SCT028
BECMG 0916/0918 05004KT
BECMG 1000/1002 09008KT

Example: see airport list